Tiempo atmosférico en la estación meteorológica de Ocaña, Toledo (733 m.)



Fecha
DESCASC
Temp. máxima en grados centígrados (hora)
DESCASC
Temp. mínima en grados centígrados (hora)
DESCASC
Temp. media en grados centígrados
DESCASC
Racha de viento máxima en m/sg (hora)
DESCASC
Velocidad máxima media en intervalos de 10 minutos(hora)
DESCASC
Precipitaciones diarias en mm
DESCASC
Precipitaciones de 00:00 a 06:00 en mm
DESCASC
Precipitaciones de 06:00 a 12:00 en mm
DESCASC
Precipitaciones de 12:00 a 18:00 en mm
DESCASC
Precipitaciones de 18:00 a 24:00 en mm
DESCASC
20-09-2020 22.7 (17:00) 13.2 (07:40) 18 8.61 (17:30) 4.44 (16:50) 0 0 0 0 0
19-09-2020 23 (17:20) 13.5 (08:00) 18.3 12.22 (03:30) 8.33 (03:30) 0.2 0 0.2 0 0
17-09-2020 27.8 (15:50) 17.4 (00:00) 22.6 10 (13:40) 6.39 (14:00) 4.8 1 0 0 3.8
16-09-2020 33.1 (17:10) 15.3 (06:30) 24.2 9.72 (22:20) 6.11 (22:10) 0.4 0 0 0 0.4
15-09-2020 30.9 (14:30) 16.3 (00:00) 23.6 8.33 (02:00) 5.56 (02:00) 0 0 0 0 0
14-09-2020 32.6 (15:30) 17.8 (00:00) 25.2 11.11 (18:40) 6.39 (18:40) 0 0 0 0 0
13-09-2020 33.9 (16:40) 18 (00:00) 26 10.83 (05:20) 6.67 (14:40) 0 0 0 0 0
12-09-2020 33.8 (15:40) 13.5 (07:50) 23.6 7.78 (14:00) 4.17 (02:50) 0 0 0 0 0
11-09-2020 32 (15:30) 14 (00:00) 23 7.22 (02:10) 5 (03:10) 0 0 0 0 0
10-09-2020 30.2 (16:30) 11.9 (00:00) 21.1 9.17 (02:50) 4.17 (17:00) 0 0 0 0 0
09-09-2020 28.5 (14:50) 11.8 (08:00) 20.2 7.78 (09:50) 5.83 (09:50) 0 0 0 0 0
08-09-2020 27.7 (16:50) 10.7 (00:00) 19.2 11.11 (13:40) 6.39 (11:10) 0 0 0 0 0
07-09-2020 26.8 (18:30) 14 (07:50) 20.4 10.83 (14:50) 7.5 (09:50) 0 0 0 0 0
06-09-2020 34.4 (17:00) 15.1 (00:00) 24.8 10 (00:50) 6.39 (00:50) 0 0 0 0 0
05-09-2020 33.8 (16:30) 14.2 (00:00) 24 8.61 (23:40) 4.72 (04:30) 0 0 0 0 0
04-09-2020 32.5 (16:50) 16 (00:00) 24.3 8.61 (01:50) 5.28 (10:10) 0 0 0 0 0
03-09-2020 32.3 (15:50) 14.6 (00:00) 23.4 7.22 (04:10) 4.44 (02:30) 0 0 0 0 0
02-09-2020 29.5 (17:10) 11.7 (00:00) 20.6 6.67 (17:00) 4.72 (09:30) 0 0 0 0 0
01-09-2020 28.7 (15:10) 12.3 (00:00) 20.5 12.5 (15:30) 4.44 (10:30) 0 0 0 0 0
31-08-2020 27 (17:00) 8.2 (00:00) 17.6 7.22 (15:00) 4.72 (03:00) 0 0 0 0 0
30-08-2020 23.4 (16:20) 8.5 (00:00) 15.9 8.61 (11:40) 6.11 (00:20) 0 0 0 0 0
29-08-2020 24.5 (15:50) 13.8 (00:00) 19.2 11.67 (20:20) 8.61 (20:20) 0 0 0 0 0
28-08-2020 32.9 (15:10) 19.9 (00:00) 26.4 11.67 (16:30) 6.11 (17:50) 0 0 0 0 0
27-08-2020 36.9 (17:40) 17.5 (00:00) 27.2 6.11 (16:40) 3.06 (15:00) 0 0 0 0 0
26-08-2020 38.3 (17:20) 19.1 (00:00) 28.7 5.83 (14:50) 3.33 (09:20) 0 0 0 0 0
25-08-2020 36.7 (16:30) 18.6 (00:00) 27.7 8.06 (16:50) 4.17 (08:50) 0 0 0 0 0
24-08-2020 35.4 (17:50) 18.4 (05:50) 26.9 8.33 (11:40) 5.28 (11:40) 0 0 0 0 0
23-08-2020 34.3 (15:40) 14.5 (00:00) 24.4 6.39 (09:10) 5 (09:40) 0 0 0 0 0

Gráficas

Temp. máximas Temp. mínimas Temp. medias Precipitaciones Rachas de viento máximas Velocidades máximas media en intervalos de 10 minutos

Datos horarios

Fecha y hora oficial Temperatura (ºC) Velocidad del viento (km/h) Dirección del viento Racha (km/h) Dirección de racha Precipitación (mm) Presión (hPa) Tendencia (hPa) Humedad (%)
2020-09-21 23:00:00 14.9 2 Oeste 9 Oeste 0 -- -- 61
2020-09-21 22:00:00 17 4 Oeste 10 Oeste 0 -- -- 53
2020-09-21 21:00:00 18.2 4 Noroeste 11 Noroeste 0 -- -- 54
2020-09-21 20:00:00 20.6 3 Noroeste 16 Oeste 0 -- -- 50
2020-09-21 19:00:00 22.7 6 Oeste 22 Oeste 0 -- -- 44
2020-09-21 18:00:00 23.9 11 Oeste 24 Oeste 0 -- -- 40
2020-09-21 17:00:00 24.2 10 Noroeste 23 Oeste 0 -- -- 39
2020-09-21 16:00:00 24.8 7 Oeste 25 Sudoeste 0 -- -- 40
2020-09-21 15:00:00 23.2 7 Oeste 43 Oeste 0 -- -- 44
2020-09-21 14:00:00 23.7 9 Oeste 20 Sudoeste 0 -- -- 46
2020-09-21 13:00:00 22 7 Noroeste 16 Noroeste 0 -- -- 51
2020-09-21 12:00:00 20.6 5 Oeste 12 Oeste 0 -- -- 56
2020-09-21 11:00:00 18.5 6 Oeste 15 Oeste 0 -- -- 66
2020-09-21 10:00:00 15.9 0 Calma 4 Noroeste 0 -- -- 80
2020-09-21 09:00:00 12.2 0 Calma 6 Sur 0 -- -- 95
2020-09-21 08:00:00 11.7 5 Sur 9 Oeste 0 -- -- 93
2020-09-21 07:00:00 12.6 6 Oeste 10 Oeste 0 -- -- 94
2020-09-21 06:00:00 11.7 2 Oeste 5 Oeste 0 -- -- 94
2020-09-21 05:00:00 12.5 2 Oeste 8 Oeste 0 -- -- 92
2020-09-21 04:00:00 13.5 4 Noroeste 12 Oeste 0 -- -- 91
2020-09-21 03:00:00 14 6 Oeste 12 Oeste 0 -- -- 92
2020-09-21 02:00:00 14.1 3 Oeste 12 Oeste 0 -- -- 90
2020-09-21 01:00:00 15.5 5 Oeste 14 Oeste 0 -- -- 86
2020-09-21 00:00:00 15.8 5 Oeste 15 Noroeste 0 -- -- 85
2020-09-20 23:00:00 16.3 6 Oeste 17 Sudoeste 0 -- -- 82
2020-09-20 22:00:00 16.7 7 Oeste 16 Oeste 0 -- -- 79
2020-09-20 21:00:00 17.6 9 Oeste 21 Noroeste 0 -- -- 75
2020-09-20 20:00:00 19.5 10 Oeste 24 Oeste 0 -- -- 70
2020-09-20 19:00:00 21 9 Oeste 23 Oeste 0 -- -- 63
2020-09-20 18:00:00 22 14 Oeste 31 Oeste 0 -- -- 58
2020-09-20 17:00:00 22.7 12 Oeste 27 Oeste 0 -- -- 57
2020-09-20 16:00:00 21.7 11 Oeste 24 Oeste 0 -- -- 60
2020-09-20 15:00:00 20.1 11 Oeste 24 Oeste 0 -- -- 65
2020-09-20 14:00:00 22.1 12 Oeste 30 Oeste 0 -- -- 57
2020-09-20 13:00:00 21.2 9 Oeste 21 Oeste 0 -- -- 60
2020-09-20 12:00:00 20.8 10 Oeste 22 Oeste 0 -- -- 62
2020-09-20 11:00:00 18.8 11 Sudoeste 21 Sudoeste 0 -- -- 70
2020-09-20 10:00:00 17.6 10 Sudoeste 13 Sudoeste 0 -- -- 79
2020-09-20 09:00:00 15.1 4 Sur 9 Sur 0 -- -- 90
2020-09-20 08:00:00 13.4 6 Sur 8 Sur 0 -- -- 93
2020-09-20 07:00:00 13.9 4 Sur 8 Sur 0 -- -- 90
2020-09-20 06:00:00 14.5 3 Sur 6 Sudoeste 0 -- -- 89
2020-09-20 05:00:00 15 4 Sudoeste 10 Oeste 0 -- -- 87
2020-09-20 04:00:00 15.3 3 Sudoeste 5 Sur 0 -- -- 87
2020-09-20 03:00:00 15.5 4 Sur 7 Sur 0 -- -- 87
2020-09-20 02:00:00 15.6 4 Sur 8 Sur 0 -- -- 85
2020-09-20 01:00:00 15.7 4 Sudoeste 13 Oeste 0 -- -- 83
2020-09-20 00:00:00 16.1 6 Oeste 11 Oeste 0 -- -- 80
2020-09-19 23:00:00 15.9 5 Oeste 11 Oeste 0 -- -- 79
2020-09-19 22:00:00 16.1 3 Oeste 11 Oeste 0 -- -- 78
2020-09-19 21:00:00 17.3 6 Oeste 17 Oeste 0 -- -- 72
2020-09-19 20:00:00 18.9 8 Oeste 28 Oeste 0 -- -- 64
2020-09-19 19:00:00 20.3 14 Oeste 33 Oeste 0 -- -- 58
2020-09-19 18:00:00 22.7 15 Oeste 36 Oeste 0 -- -- 50
2020-09-19 17:00:00 22.7 15 Oeste 33 Oeste 0 -- -- 48
2020-09-19 16:00:00 22.6 17 Oeste 34 Sudoeste 0 -- -- 49
2020-09-19 15:00:00 22.1 18 Oeste 44 Oeste 0 -- -- 52
2020-09-19 14:00:00 20.6 21 Oeste 43 Sudoeste 0 -- -- 57
2020-09-19 13:00:00 19.9 20 Oeste 40 Sudoeste 0 -- -- 61
2020-09-19 12:00:00 19.3 26 Sudoeste 43 Sudoeste 0.2 -- -- 65
2020-09-19 11:00:00 18.6 28 Sudoeste 41 Sudoeste 0 -- -- 71
2020-09-19 10:00:00 16.7 22 Sudoeste 34 Sudoeste 0 -- -- 82
2020-09-19 09:00:00 14.6 12 Sur 26 Sudoeste 0 -- -- 93
2020-09-19 08:00:00 13.5 18 Sur 25 Sur 0 -- -- 93
2020-09-19 07:00:00 13.8 14 Sur 28 Sudoeste 0 -- -- 92
2020-09-19 06:00:00 14.4 18 Sur 27 Sudoeste 0 -- -- 91
2020-09-19 05:00:00 14.7 20 Sur 29 Sudoeste 0 -- -- 90
2020-09-19 04:00:00 15.2 19 Sur 44 Sudoeste 0 -- -- 88
2020-09-19 03:00:00 15.6 20 Sur 37 Sur 0 -- -- 87
2020-09-19 02:00:00 15.8 28 Sur 44 Sur 0 -- -- 88
2020-09-19 01:00:00 15.3 23 Sur 35 Sur 0 -- -- 93
2020-09-19 00:00:00 15.1 17 Sudeste 28 Sudeste 0 -- -- 94
2020-09-18 23:00:00 15.6 10 Sudeste 18 Sudeste 0 -- -- 91
2020-09-18 22:00:00 14.8 9 Sudeste 14 Sudeste 0 -- -- 90
2020-09-18 21:00:00 15 9 Sur 22 Sur 0 -- -- 88
2020-09-18 20:00:00 16 12 Sur 23 Sudeste 0 -- -- 91
2020-09-18 19:00:00 16.6 10 Sudeste 19 Sudeste 0 -- -- 90
2020-09-18 18:00:00 15.8 15 Sudoeste 27 Sudoeste 3.6 -- -- 88
2020-09-18 17:00:00 18.9 15 Sur 26 Sur 0.2 -- -- 75
2020-09-18 16:00:00 21 16 Sur 27 Sur 0 -- -- 68
2020-09-18 15:00:00 19.6 15 Sur 32 Sur 0.6 -- -- 79
2020-09-18 14:00:00 18.1 15 Sur 28 Sudeste 0.2 -- -- 81
2020-09-18 13:00:00 17.7 18 Sudeste 31 Sudeste 0 -- -- 83
2020-09-18 12:00:00 19.8 11 Sudeste 21 Sudeste 0 -- -- 72
2020-09-18 11:00:00 18.8 12 Sur 27 Sudeste 0 -- -- 77
2020-09-18 10:00:00 17.8 14 Sudeste 28 Sudeste 0 -- -- 78
2020-09-18 09:00:00 16.3 18 Sudeste 29 Sudeste 0 -- -- 82
2020-09-18 08:00:00 16.4 15 Sur 30 Sudeste 0 -- -- 81
2020-09-18 07:00:00 16.6 21 Sur 35 Sur 0 -- -- 80
2020-09-18 06:00:00 16.9 24 Sur 42 Sur 0 -- -- 80
2020-09-18 05:00:00 17.3 25 Sur 38 Sur 0 -- -- 80
2020-09-18 04:00:00 17.8 27 Sur 37 Sur 0 -- -- 79
2020-09-18 03:00:00 18 23 Sur 35 Sur 0 -- -- 86
2020-09-18 02:00:00 18.2 10 Sudeste 18 Sudeste 0 -- -- 92
2020-09-18 01:00:00 18 8 Sudeste 23 Sudeste 0.4 -- -- 91
2020-09-18 00:00:00 18.3 15 Sur 30 Sudeste 3.4 -- -- 88
2020-09-17 23:00:00 19.4 4 Oeste 22 Sur 0.2 -- -- 80
2020-09-17 22:00:00 20.9 14 Sur 33 Sudeste 0.2 -- -- 72
2020-09-17 21:00:00 23.1 3 Sudoeste 13 Oeste 0 -- -- 57
2020-09-17 20:00:00 24.2 8 Sur 20 Sur 0 -- -- 52
2020-09-17 19:00:00 25.5 14 Sur 29 Sur 0 -- -- 49
2020-09-17 18:00:00 26.3 19 Sur 35 Sudoeste 0 -- -- 47
2020-09-17 17:00:00 27.3 22 Sur 35 Sur 0 -- -- 45
2020-09-17 16:00:00 27.3 17 Sur 25 Sur 0 -- -- 48
2020-09-17 15:00:00 24.7 14 Sur 28 Sudoeste 0 -- -- 58
2020-09-17 14:00:00 24.1 23 Sur 36 Sur 0 -- -- 58
2020-09-17 13:00:00 25 16 Sur 35 Sudoeste 0 -- -- 55
2020-09-17 12:00:00 24.5 15 Sur 24 Sur 0 -- -- 59
2020-09-17 11:00:00 23.8 12 Sur 23 Sudeste 0 -- -- 65
2020-09-17 10:00:00 20.5 11 Sudeste 18 Este 0 -- -- 77
2020-09-17 09:00:00 17.9 12 Este 16 Este 0 -- -- 89
2020-09-17 08:00:00 17.8 13 Este 17 Este 0 -- -- 89
2020-09-17 07:00:00 17.9 8 Este 13 Este 0 -- -- 89
2020-09-17 06:00:00 17.9 5 Sudeste 12 Sur 0.2 -- -- 87
2020-09-17 05:00:00 18 8 Sudeste 23 Sudeste 0 -- -- 85
2020-09-17 04:00:00 17.6 10 Este 15 Este 0 -- -- 89
2020-09-17 03:00:00 18.1 12 Sur 35 Sudoeste 0.4 -- -- 82
2020-09-17 02:00:00 19.8 12 Oeste 21 Sudoeste 0 -- -- 72
2020-09-17 01:00:00 20 17 Sudoeste 30 Sudoeste 0.4 -- -- 76
2020-09-17 00:00:00 23 11 Sudeste 18 Sudeste 0 -- -- 55
2020-09-16 23:00:00 21.8 0 Calma 35 Sudoeste 0.4 -- -- 66
2020-09-16 22:00:00 26.4 11 Sur 19 Sur 0 -- -- 34
2020-09-16 21:00:00 26.6 4 Sudeste 12 Sur 0 -- -- 37
2020-09-16 20:00:00 28.4 9 Sur 25 Sur 0 -- -- 34
2020-09-16 19:00:00 30 11 Sudeste 28 Sur 0 -- -- 30
2020-09-16 18:00:00 31.2 14 Sur 27 Sudoeste 0 -- -- 28
2020-09-16 17:00:00 32.7 12 Sur 29 Sudeste 0 -- -- 27
2020-09-16 16:00:00 33 12 Sur 31 Sur 0 -- -- 28
2020-09-16 15:00:00 31.6 10 Sur 23 Sur 0 -- -- 30
2020-09-16 14:00:00 31.4 10 Sur 26 Este 0 -- -- 33
2020-09-16 13:00:00 30 8 Sur 18 Este 0 -- -- 37
2020-09-16 12:00:00 28 10 Sudeste 19 Sudeste 0 -- -- 41
2020-09-16 11:00:00 24.4 12 Sudeste 19 Sudeste 0 -- -- 50
2020-09-16 10:00:00 21.6 9 Sudeste 17 Sudeste 0 -- -- 57
2020-09-16 09:00:00 18 11 Este 16 Sudeste 0 -- -- 67
2020-09-16 08:00:00 16.4 7 Sudeste 12 Sudeste 0 -- -- 70
2020-09-16 07:00:00 15.8 7 Sudeste 10 Sudeste 0 -- -- 70
2020-09-16 06:00:00 16.3 5 Sudeste 10 Sudeste 0 -- -- 62
2020-09-16 05:00:00 17 5 Sudeste 11 Sudeste 0 -- -- 60
2020-09-16 04:00:00 16.3 4 Este 10 Sudeste 0 -- -- 60
2020-09-16 03:00:00 17.9 4 Sudoeste 17 Sudeste 0 -- -- 63
2020-09-16 02:00:00 18.7 4 Noroeste 8 Noroeste 0 -- -- 60
2020-09-16 01:00:00 19.3 2 Este 4 Este 0 -- -- 58
2020-09-16 00:00:00 20.2 4 Sudeste 8 Norte 0 -- -- 55
2020-09-15 23:00:00 21.2 4 Norte 6 Este 0 -- -- 54
2020-09-15 22:00:00 22.3 3 Norte 6 Noroeste 0 -- -- 50
2020-09-15 21:00:00 23.2 2 Sudeste 9 Sur 0 -- -- 50
2020-09-15 20:00:00 26.8 9 Sudoeste 16 Sur 0 -- -- 42
2020-09-15 19:00:00 29 7 Sur 22 Sur 0 -- -- 39
2020-09-15 18:00:00 29.5 9 Sudoeste 22 Sur 0 -- -- 38
2020-09-15 17:00:00 29.9 10 Sur 18 Sur 0 -- -- 37
2020-09-15 16:00:00 30.6 7 Sur 26 Sur 0 -- -- 37
2020-09-15 15:00:00 29.9 7 Sudeste 22 Sudoeste 0 -- -- 39
2020-09-15 14:00:00 28.4 12 Sur 26 Sudoeste 0 -- -- 41
2020-09-15 13:00:00 27.8 5 Oeste 15 Oeste 0 -- -- 42
2020-09-15 12:00:00 26.9 5 Sur 10 Sudeste 0 -- -- 48
2020-09-15 11:00:00 24.6 5 Sudeste 11 Sudeste 0 -- -- 54
2020-09-15 10:00:00 21.6 6 Sudeste 13 Sudeste 0 -- -- 64
2020-09-15 09:00:00 17.7 8 Sudeste 14 Sudeste 0 -- -- 78
2020-09-15 08:00:00 16.4 6 Sudeste 12 Sudeste 0 -- -- 84
2020-09-15 07:00:00 16.7 5 Sudeste 13 Sur 0 -- -- 82
2020-09-15 06:00:00 17.5 8 Sur 15 Sudeste 0 -- -- 79
2020-09-15 05:00:00 18.1 9 Sudeste 18 Sudeste 0 -- -- 76
2020-09-15 04:00:00 19 12 Sudeste 22 Sudeste 0 -- -- 72
2020-09-15 03:00:00 19.7 15 Sudeste 30 Sudeste 0 -- -- 71
2020-09-15 02:00:00 21.2 20 Sudeste 30 Sudeste 0 -- -- 60
2020-09-15 01:00:00 18.9 8 Sur 15 Sudeste 0 -- -- 63
2020-09-15 00:00:00 21.4 10 Sudeste 23 Sur 0 -- -- 55
2020-09-14 23:00:00 22 12 Sur 30 Sur 0 -- -- 52
2020-09-14 22:00:00 23.7 14 Sudeste 29 Sudeste 0 -- -- 47
2020-09-14 21:00:00 24.5 14 Sudeste 40 Sur 0 -- -- 46
2020-09-14 20:00:00 27 14 Sudeste 28 Sudeste 0 -- -- 35
2020-09-14 19:00:00 27.2 17 Sudeste 40 Sudeste 0 -- -- 38
2020-09-14 18:00:00 29.8 16 Sur 32 Sur 0 -- -- 30
2020-09-14 17:00:00 31.8 9 Sur 25 Sudeste 0 -- -- 26
2020-09-14 16:00:00 31 12 Sur 23 Sur 0 -- -- 28
2020-09-14 15:00:00 31.2 11 Sudeste 24 Sur 0 -- -- 30
2020-09-14 14:00:00 29.7 14 Sur 26 Sur 0 -- -- 33
2020-09-14 13:00:00 29.5 14 Sur 28 Sur 0 -- -- 34
2020-09-14 12:00:00 27.3 18 Sur 30 Sur 0 -- -- 38
2020-09-14 11:00:00 25.4 19 Sudeste 32 Sudeste 0 -- -- 44
2020-09-14 10:00:00 22 19 Sudeste 32 Sudeste 0 -- -- 53
2020-09-14 09:00:00 19.6 14 Sudeste 29 Sudeste 0 -- -- 62
2020-09-14 08:00:00 17.8 17 Sudeste 34 Sudeste 0 -- -- 67
2020-09-14 07:00:00 18.1 18 Sudeste 29 Sudeste 0 -- -- 66
2020-09-14 06:00:00 18.3 17 Sudeste 30 Sudeste 0 -- -- 65
2020-09-14 05:00:00 18.9 18 Sudeste 36 Sudeste 0 -- -- 63
2020-09-14 04:00:00 19.9 22 Sudeste 36 Sudeste 0 -- -- 59
2020-09-14 03:00:00 20.3 18 Sudeste 31 Sudeste 0 -- -- 56
2020-09-14 02:00:00 21.1 17 Sudeste 32 Sudeste 0 -- -- 53
2020-09-14 01:00:00 22.3 18 Sudeste 29 Sudeste 0 -- -- 49
2020-09-14 00:00:00 23.4 14 Sudeste 29 Sudeste 0 -- -- 45
2020-09-13 23:00:00 24.3 15 Sudeste 26 Sudeste 0 -- -- 41
2020-09-13 22:00:00 24.7 11 Sudeste 21 Sudeste 0 -- -- 38
2020-09-13 21:00:00 25.9 12 Sudeste 20 Sudeste 0 -- -- 35
2020-09-13 20:00:00 28.8 8 Sudeste 24 Sudeste 0 -- -- 29
2020-09-13 19:00:00 30.1 15 Sudeste 31 Sudeste 0 -- -- 27
2020-09-13 18:00:00 32.7 18 Sudeste 31 Sudeste 0 -- -- 25
2020-09-13 17:00:00 33.5 18 Sudeste 34 Sudeste 0 -- -- 24
2020-09-13 16:00:00 32.1 16 Sur 32 Sudeste 0 -- -- 25
2020-09-13 15:00:00 32.8 20 Sudeste 35 Sur 0 -- -- 25
2020-09-13 14:00:00 33 19 Sudeste 35 Sur 0 -- -- 24
2020-09-13 13:00:00 30.6 14 Sudeste 26 Sudeste 0 -- -- 28
2020-09-13 12:00:00 29.3 14 Sur 24 Sur 0 -- -- 32
2020-09-13 11:00:00 25.7 13 Sudeste 26 Sudeste 0 -- -- 41
2020-09-13 10:00:00 22.7 14 Sudeste 27 Sudeste 0 -- -- 49
2020-09-13 09:00:00 20.1 8 Sudeste 18 Sudeste 0 -- -- 57
2020-09-13 08:00:00 18 10 Sudeste 31 Sudeste 0 -- -- 63
2020-09-13 07:00:00 18.8 18 Sudeste 32 Sudeste 0 -- -- 60
2020-09-13 06:00:00 19.1 20 Sudeste 39 Sudeste 0 -- -- 59
2020-09-13 05:00:00 19.4 21 Sudeste 34 Sudeste 0 -- -- 60
2020-09-13 04:00:00 20.1 23 Sudeste 36 Sudeste 0 -- -- 59
2020-09-13 03:00:00 20.8 22 Sudeste 35 Sudeste 0 -- -- 56
2020-09-13 02:00:00 20.9 17 Sudeste 30 Sudeste 0 -- -- 49
2020-09-13 01:00:00 21.1 13 Sudeste 23 Sudeste 0 -- -- 40
2020-09-13 00:00:00 23.6 9 Sudeste 18 Sudeste 0 -- -- 35
2020-09-12 23:00:00 21.2 7 Este 12 Este 0 -- -- 32
2020-09-12 22:00:00 22.7 7 Este 8 Este 0 -- -- 31
2020-09-12 21:00:00 25.2 4 Este 8 Nordeste 0 -- -- 29
2020-09-12 20:00:00 29.7 2 Sudeste 14 Este 0 -- -- 25
2020-09-12 19:00:00 31.5 5 Sudeste 10 Sur 0 -- -- 23
2020-09-12 18:00:00 32.9 6 Oeste 26 Este 0 -- -- 22
2020-09-12 17:00:00 33.4 6 Nordeste 17 Este 0 -- -- 22
2020-09-12 16:00:00 33.8 6 Sudoeste 20 Este 0 -- -- 22
2020-09-12 15:00:00 32.8 5 Sur 21 Este 0 -- -- 24
2020-09-12 14:00:00 31.6 11 Nordeste 28 Este 0 -- -- 28
2020-09-12 13:00:00 30.7 9 Este 26 Este 0 -- -- 30
2020-09-12 12:00:00 28.5 10 Este 19 Este 0 -- -- 35
2020-09-12 11:00:00 25.2 13 Sudeste 22 Este 0 -- -- 41
2020-09-12 10:00:00 22 15 Este 21 Este 0 -- -- 47
2020-09-12 09:00:00 17.7 9 Este 14 Este 0 -- -- 59
2020-09-12 08:00:00 13.5 12 Este 15 Este 0 -- -- 70
2020-09-12 07:00:00 14.1 11 Este 13 Sudeste 0 -- -- 66
2020-09-12 06:00:00 16.9 8 Sudeste 18 Sudeste 0 -- -- 61
2020-09-12 05:00:00 17.6 9 Sudeste 18 Sudeste 0 -- -- 58
2020-09-12 04:00:00 18 12 Sudeste 22 Sudeste 0 -- -- 52
2020-09-12 03:00:00 18.7 15 Sudeste 23 Este 0 -- -- 41
2020-09-12 02:00:00 17.5 7 Este 17 Norte 0 -- -- 40
2020-09-12 01:00:00 17.8 6 Este 11 Este 0 -- -- 38
2020-09-12 00:00:00 19 3 Este 4 Este 0 -- -- 35
2020-09-11 23:00:00 20.6 0 Calma 4 Este 0 -- -- 36
2020-09-11 22:00:00 21.4 0 Calma 4 Sudoeste 0 -- -- 33
2020-09-11 21:00:00 23.7 4 Oeste 6 Oeste 0 -- -- 31
2020-09-11 20:00:00 27.2 4 Oeste 15 Noroeste 0 -- -- 27
2020-09-11 19:00:00 30 5 Oeste 18 Oeste 0 -- -- 24
2020-09-11 18:00:00 31.2 10 Noroeste 23 Oeste 0 -- -- 20
2020-09-11 17:00:00 31.2 9 Noroeste 21 Oeste 0 -- -- 25
2020-09-11 16:00:00 31.1 7 Nordeste 19 Nordeste 0 -- -- 27
2020-09-11 15:00:00 30.9 8 Oeste 25 Oeste 0 -- -- 28
2020-09-11 14:00:00 30.2 5 Sudoeste 19 Sudoeste 0 -- -- 31
2020-09-11 13:00:00 28.8 3 Sudoeste 12 Sur 0 -- -- 37
2020-09-11 12:00:00 27.1 5 Sudeste 16 Sudeste 0 -- -- 45
2020-09-11 11:00:00 24.6 9 Este 19 Este 0 -- -- 53
2020-09-11 10:00:00 22.1 9 Este 14 Este 0 -- -- 58
2020-09-11 09:00:00 17.5 7 Este 9 Nordeste 0 -- -- 69
2020-09-11 08:00:00 14.1 5 Nordeste 11 Este 0 -- -- 77
2020-09-11 07:00:00 15.2 9 Este 14 Este 0 -- -- 74
2020-09-11 06:00:00 16.7 7 Sudeste 23 Este 0 -- -- 68
2020-09-11 05:00:00 17.6 17 Este 24 Este 0 -- -- 64
2020-09-11 04:00:00 17.6 15 Este 22 Este 0 -- -- 49
2020-09-11 03:00:00 18.9 16 Este 26 Este 0 -- -- 46
2020-09-11 02:00:00 18 10 Este 16 Este 0 -- -- 44
2020-09-11 01:00:00 17.8 6 Nordeste 10 Nordeste 0 -- -- 40
2020-09-11 00:00:00 21.4 5 Noroeste 10 Noroeste 0 -- -- 37
2020-09-10 23:00:00 20.3 3 Sudoeste 5 Sudoeste 0 -- -- 41
2020-09-10 22:00:00 21.6 3 Sudoeste 7 Sudoeste 0 -- -- 37
2020-09-10 21:00:00 24 5 Oeste 8 Oeste 0 -- -- 34
2020-09-10 20:00:00 26.5 3 Oeste 13 Noroeste 0 -- -- 33
2020-09-10 19:00:00 28.8 5 Oeste 21 Sudoeste 0 -- -- 28
2020-09-10 18:00:00 29.7 5 Oeste 19 Norte 0 -- -- 29
2020-09-10 17:00:00 29.6 15 Norte 25 Nordeste 0 -- -- 29
2020-09-10 16:00:00 29.6 9 Norte 22 Norte 0 -- -- 30
2020-09-10 15:00:00 29.2 10 Nordeste 22 Norte 0 -- -- 30
2020-09-10 14:00:00 27.2 10 Norte 25 Nordeste 0 -- -- 35
2020-09-10 13:00:00 26.4 9 Nordeste 20 Norte 0 -- -- 37
2020-09-10 12:00:00 24.7 8 Nordeste 17 Nordeste 0 -- -- 40
2020-09-10 11:00:00 22.7 8 Nordeste 17 Este 0 -- -- 44
2020-09-10 10:00:00 21.3 12 Este 17 Este 0 -- -- 47
2020-09-10 09:00:00 16.4 8 Nordeste 11 Nordeste 0 -- -- 56
2020-09-10 08:00:00 13.4 9 Nordeste 13 Este 0 -- -- 62
2020-09-10 07:00:00 12 10 Este 12 Este 0 -- -- 57
2020-09-10 06:00:00 13.6 4 Nordeste 6 Nordeste 0 -- -- 50
2020-09-10 05:00:00 14.4 3 Nordeste 18 Sudeste 0 -- -- 47
2020-09-10 04:00:00 15.3 6 Este 13 Nordeste 0 -- -- 44
2020-09-10 03:00:00 17.9 12 Nordeste 33 Norte 0 -- -- 40
2020-09-10 02:00:00 19.2 5 Oeste 7 Oeste 0 -- -- 38
2020-09-10 01:00:00 19.4 3 Noroeste 11 Oeste 0 -- -- 39
2020-09-10 00:00:00 19.5 6 Oeste 10 Oeste 0 -- -- 39
2020-09-09 23:00:00 20.2 6 Oeste 10 Oeste 0 -- -- 38
2020-09-09 22:00:00 20.6 4 Oeste 8 Oeste 0 -- -- 37
2020-09-09 21:00:00 22.4 4 Oeste 9 Oeste 0 -- -- 34
2020-09-09 20:00:00 25 3 Nordeste 19 Norte 0 -- -- 29
2020-09-09 19:00:00 27.4 3 Este 13 Sur 0 -- -- 26
2020-09-09 18:00:00 27.9 9 Este 23 Noroeste 0 -- -- 25
2020-09-09 17:00:00 28.2 6 Norte 20 Norte 0 -- -- 27
2020-09-09 16:00:00 28.3 7 Noroeste 16 Nordeste 0 -- -- 28
2020-09-09 15:00:00 28 6 Este 19 Sudeste 0 -- -- 29
2020-09-09 14:00:00 27.6 7 Este 17 Este 0 -- -- 30
2020-09-09 13:00:00 26.4 7 Este 20 Este 0 -- -- 32
2020-09-09 12:00:00 24.5 12 Este 22 Sudeste 0 -- -- 39
2020-09-09 11:00:00 22.2 15 Este 28 Este 0 -- -- 45
2020-09-09 10:00:00 19.5 20 Este 28 Este 0 -- -- 50
2020-09-09 09:00:00 15.3 15 Este 21 Este 0 -- -- 58
2020-09-09 08:00:00 11.8 8 Este 17 Nordeste 0 -- -- 70
2020-09-09 07:00:00 12.8 12 Este 20 Sudeste 0 -- -- 71
2020-09-09 06:00:00 13 13 Sudeste 20 Sudeste 0 -- -- 68
2020-09-09 05:00:00 13.9 10 Sudeste 19 Sudeste 0 -- -- 65
2020-09-09 04:00:00 15 12 Sudeste 19 Sudeste 0 -- -- 61
2020-09-09 03:00:00 15.5 13 Sudeste 23 Sudeste 0 -- -- 55
2020-09-09 02:00:00 16.1 10 Sudeste 21 Sudeste 0 -- -- 52
2020-09-09 01:00:00 17.1 11 Sudeste 22 Sudeste 0 -- -- 48
2020-09-09 00:00:00 18.1 12 Sudeste 24 Este 0 -- -- 42
2020-09-08 23:00:00 18.1 8 Sudeste 14 Sudeste 0 -- -- 41
2020-09-08 22:00:00 19.3 6 Sudeste 11 Sudeste 0 -- -- 38
2020-09-08 21:00:00 21 7 Sudeste 18 Este 0 -- -- 35
2020-09-08 20:00:00 23.4 12 Sudeste 23 Sudeste 0 -- -- 32
2020-09-08 19:00:00 25.2 13 Sudeste 27 Este 0 -- -- 31
2020-09-08 18:00:00 26.6 16 Este 28 Sudeste 0 -- -- 30
2020-09-08 17:00:00 26.9 14 Sudeste 35 Este 0 -- -- 30
2020-09-08 16:00:00 27.1 12 Sudeste 34 Sudeste 0 -- -- 28
2020-09-08 15:00:00 26.5 19 Este 31 Este 0 -- -- 30
2020-09-08 14:00:00 25.6 13 Sudeste 40 Norte 0 -- -- 33
2020-09-08 13:00:00 24 14 Este 27 Este 0 -- -- 37
2020-09-08 12:00:00 22.5 19 Este 35 Este 0 -- -- 46
2020-09-08 11:00:00 20 18 Este 30 Este 0 -- -- 48
2020-09-08 10:00:00 16.6 16 Nordeste 23 Este 0 -- -- 51
2020-09-08 09:00:00 13.5 14 Nordeste 19 Nordeste 0 -- -- 58
2020-09-08 08:00:00 10.9 14 Nordeste 21 Nordeste 0 -- -- 63
2020-09-08 07:00:00 11.3 15 Nordeste 23 Nordeste 0 -- -- 61
2020-09-08 06:00:00 12.2 18 Nordeste 25 Nordeste 0 -- -- 57
2020-09-08 05:00:00 12.7 14 Nordeste 22 Nordeste 0 -- -- 53
2020-09-08 04:00:00 13.1 9 Nordeste 18 Este 0 -- -- 72
2020-09-08 03:00:00 15 14 Este 23 Este 0 -- -- 74
2020-09-08 02:00:00 15.1 14 Este 20 Este 0 -- -- 54
2020-09-08 01:00:00 15.1 14 Este 20 Este 0 -- -- 35
2020-09-08 00:00:00 17.4 17 Nordeste 26 Nordeste 0 -- -- 31
2020-09-07 23:00:00 17.4 5 Nordeste 11 Nordeste 0 -- -- 29
2020-09-07 22:00:00 18.8 8 Nordeste 15 Nordeste 0 -- -- 27
2020-09-07 21:00:00 20.6 11 Nordeste 26 Nordeste 0 -- -- 26
2020-09-07 20:00:00 23.8 20 Nordeste 32 Nordeste 0 -- -- 22
2020-09-07 19:00:00 25.9 18 Nordeste 32 Nordeste 0 -- -- 20
2020-09-07 18:00:00 26.7 17 Norte 32 Nordeste 0 -- -- 20
2020-09-07 17:00:00 26.4 18 Norte 28 Norte 0 -- -- 24
2020-09-07 16:00:00 26 15 Norte 37 Norte 0 -- -- 24
2020-09-07 15:00:00 25.9 22 Norte 39 Norte 0 -- -- 26
2020-09-07 14:00:00 24.6 17 Norte 31 Norte 0 -- -- 30
2020-09-07 13:00:00 23.3 22 Nordeste 33 Nordeste 0 -- -- 33
2020-09-07 12:00:00 21.8 21 Nordeste 33 Nordeste 0 -- -- 37
2020-09-07 11:00:00 19.7 23 Nordeste 34 Nordeste 0 -- -- 43
2020-09-07 10:00:00 17.3 26 Nordeste 36 Nordeste 0 -- -- 48
2020-09-07 09:00:00 15.4 23 Nordeste 30 Nordeste 0 -- -- 52
2020-09-07 08:00:00 14.1 17 Nordeste 26 Nordeste 0 -- -- 57
2020-09-07 07:00:00 14.9 23 Nordeste 30 Nordeste 0 -- -- 59
2020-09-07 06:00:00 16.1 19 Nordeste 26 Nordeste 0 -- -- 59
2020-09-07 05:00:00 15.5 7 Nordeste 14 Nordeste 0 -- -- 62
2020-09-07 04:00:00 17.3 2 Este 21 Nordeste 0 -- -- 56
2020-09-07 03:00:00 20.6 0 Calma 25 Norte 0 -- -- 48
2020-09-07 02:00:00 22.2 15 Nordeste 20 Norte 0 -- -- 43
2020-09-07 01:00:00 22.6 13 Nordeste 21 Nordeste 0 -- -- 40
2020-09-07 00:00:00 24.6 15 Nordeste 24 Norte 0 -- -- 33
2020-09-06 23:00:00 24.9 13 Nordeste 24 Norte 0 -- -- 33
2020-09-06 22:00:00 25.5 6 Oeste 8 Noroeste 0 -- -- 29
2020-09-06 21:00:00 26.7 5 Noroeste 10 Noroeste 0 -- -- 27
2020-09-06 20:00:00 29.7 4 Oeste 27 Noroeste 0 -- -- 25
2020-09-06 19:00:00 31.9 8 Oeste 21 Oeste 0 -- -- 24
2020-09-06 18:00:00 32.9 7 Sudoeste 24 Sudoeste 0 -- -- 24
2020-09-06 17:00:00 34.4 7 Sur 18 Sudoeste 0 -- -- 22
2020-09-06 16:00:00 34 7 Sudeste 21 Sudeste 0 -- -- 22
2020-09-06 15:00:00 32.8 8 Sur 24 Sudeste 0 -- -- 22
2020-09-06 14:00:00 31.9 11 Sur 24 Sur 0 -- -- 22
2020-09-06 13:00:00 30.2 14 Sudeste 27 Sur 0 -- -- 24
2020-09-06 12:00:00 28.1 12 Sudeste 23 Sudeste 0 -- -- 30
2020-09-06 11:00:00 25.4 11 Sudeste 22 Este 0 -- -- 35
2020-09-06 10:00:00 22.8 14 Este 21 Este 0 -- -- 42
2020-09-06 09:00:00 19.1 13 Este 17 Este 0 -- -- 51
2020-09-06 08:00:00 15.1 11 Este 19 Este 0 -- -- 64
2020-09-06 07:00:00 15.9 15 Este 23 Este 0 -- -- 60
2020-09-06 06:00:00 17.3 17 Este 26 Nordeste 0 -- -- 70
2020-09-06 05:00:00 18.3 13 Sudeste 22 Sudeste 0 -- -- 71
2020-09-06 04:00:00 18.7 11 Sudeste 23 Sudeste 0 -- -- 62
2020-09-06 03:00:00 19.7 13 Sudeste 27 Sudeste 0 -- -- 52
2020-09-06 02:00:00 21.1 17 Sudeste 34 Sudeste 0 -- -- 48
2020-09-06 01:00:00 22.4 21 Sudeste 36 Sudeste 0 -- -- 46
2020-09-06 00:00:00 22.7 12 Sudeste 31 Sudeste 0 -- -- 40
2020-09-05 23:00:00 21.9 4 Sudoeste 6 Oeste 0 -- -- 36
2020-09-05 22:00:00 23.8 3 Sudoeste 5 Sur 0 -- -- 36
2020-09-05 21:00:00 26.1 2 Sur 9 Este 0 -- -- 29
2020-09-05 20:00:00 29.8 3 Sudeste 13 Este 0 -- -- 26
2020-09-05 19:00:00 32.4 8 Sudeste 15 Este 0 -- -- 25
2020-09-05 18:00:00 33.5 8 Sudeste 24 Este 0 -- -- 24
2020-09-05 17:00:00 33.5 6 Sudoeste 15 Sur 0 -- -- 24
2020-09-05 16:00:00 33.5 8 Sudeste 15 Sudeste 0 -- -- 24
2020-09-05 15:00:00 32.8 6 Este 21 Sudeste 0 -- -- 26
2020-09-05 14:00:00 31.8 10 Este 21 Sudeste 0 -- -- 29
2020-09-05 13:00:00 29.9 10 Este 21 Este 0 -- -- 36
2020-09-05 12:00:00 27.7 10 Este 19 Este 0 -- -- 46
2020-09-05 11:00:00 24.4 9 Sudeste 26 Sudeste 0 -- -- 54
2020-09-05 10:00:00 21.1 15 Sudeste 24 Sudeste 0 -- -- 67
2020-09-05 09:00:00 17.2 12 Este 17 Sudeste 0 -- -- 77
2020-09-05 08:00:00 14.3 10 Este 18 Este 0 -- -- 86
2020-09-05 07:00:00 15.4 14 Este 23 Este 0 -- -- 85
2020-09-05 06:00:00 16.8 13 Sudeste 23 Este 0 -- -- 81
2020-09-05 05:00:00 17.7 15 Sudeste 26 Sudeste 0 -- -- 76
2020-09-05 04:00:00 18.4 16 Sudeste 29 Sudeste 0 -- -- 69
2020-09-05 03:00:00 19.1 14 Sudeste 25 Sudeste 0 -- -- 66
2020-09-05 02:00:00 19.7 14 Sudeste 28 Sudeste 0 -- -- 57
2020-09-05 01:00:00 20.8 12 Sudeste 20 Sudeste 0 -- -- 48
2020-09-05 00:00:00 21.3 8 Sudeste 14 Sudeste 0 -- -- 44
2020-09-04 23:00:00 21.6 8 Sudeste 12 Sudeste 0 -- -- 41
2020-09-04 22:00:00 22.7 5 Sudeste 12 Sudeste 0 -- -- 37
2020-09-04 21:00:00 24.8 7 Sudeste 19 Sudeste 0 -- -- 32
2020-09-04 20:00:00 28.3 11 Sur 24 Sudeste 0 -- -- 26
2020-09-04 19:00:00 30.5 11 Sudeste 27 Sudeste 0 -- -- 22
2020-09-04 18:00:00 31.7 12 Sudeste 25 Este 0 -- -- 22
2020-09-04 17:00:00 32.3 10 Sudeste 27 Sudeste 0 -- -- 23
2020-09-04 16:00:00 32.3 9 Sudeste 26 Sudeste 0 -- -- 25
2020-09-04 15:00:00 31.9 12 Este 30 Este 0 -- -- 29
2020-09-04 14:00:00 30.3 16 Este 30 Este 0 -- -- 32
2020-09-04 13:00:00 28.8 14 Sudeste 27 Sudeste 0 -- -- 35
2020-09-04 12:00:00 26.8 15 Sudeste 27 Este 0 -- -- 35
2020-09-04 11:00:00 24.5 15 Sudeste 29 Sudeste 0 -- -- 48
2020-09-04 10:00:00 21.5 17 Sudeste 25 Sudeste 0 -- -- 54
2020-09-04 09:00:00 18 12 Este 18 Este 0 -- -- 67
2020-09-04 08:00:00 16.5 12 Este 24 Sudeste 0 -- -- 73
2020-09-04 07:00:00 16.9 14 Sudeste 25 Sudeste 0 -- -- 72
2020-09-04 06:00:00 17.3 17 Sudeste 25 Este 0 -- -- 72
2020-09-04 05:00:00 17.8 16 Sudeste 26 Sudeste 0 -- -- 70
2020-09-04 04:00:00 18.5 15 Sudeste 28 Sudeste 0 -- -- 67
2020-09-04 03:00:00 19.5 15 Sudeste 30 Sudeste 0 -- -- 63
2020-09-04 02:00:00 20.1 18 Sudeste 31 Este 0 -- -- 53
2020-09-04 01:00:00 20.1 9 Sudeste 17 Sudeste 0 -- -- 41
2020-09-04 00:00:00 21.3 6 Sudeste 13 Sudeste 0 -- -- 37
2020-09-03 23:00:00 22.6 7 Sudeste 11 Sudeste 0 -- -- 34
2020-09-03 22:00:00 22.8 8 Sur 11 Sudeste 0 -- -- 32
2020-09-03 21:00:00 25.3 6 Sur 9 Sur 0 -- -- 29
2020-09-03 20:00:00 28.5 0 Calma 14 Sudoeste 0 -- -- 27
2020-09-03 19:00:00 31.1 8 Sur 15 Sudeste 0 -- -- 24
2020-09-03 18:00:00 31.2 7 Sudoeste 17 Oeste 0 -- -- 23
2020-09-03 17:00:00 32.3 8 Sudeste 21 Sudeste 0 -- -- 23
2020-09-03 16:00:00 31.8 8 Sur 21 Sudoeste 0 -- -- 24
2020-09-03 15:00:00 31.1 5 Oeste 18 Este 0 -- -- 26
2020-09-03 14:00:00 30.1 5 Nordeste 18 Sudeste 0 -- -- 32
2020-09-03 13:00:00 28.2 7 Este 17 Este 0 -- -- 40
2020-09-03 12:00:00 26.1 6 Sudeste 15 Sudeste 0 -- -- 48
2020-09-03 11:00:00 23.3 9 Este 17 Este 0 -- -- 58
2020-09-03 10:00:00 20.2 9 Este 16 Este 0 -- -- 69
2020-09-03 09:00:00 16.9 9 Este 17 Este 0 -- -- 81
2020-09-03 08:00:00 14.6 9 Sudeste 20 Sudeste 0 -- -- 88
2020-09-03 07:00:00 15.2 12 Sudeste 22 Sudeste 0 -- -- 86
2020-09-03 06:00:00 15.6 10 Sudeste 24 Sudeste 0 -- -- 81
2020-09-03 05:00:00 15.9 14 Sudeste 26 Este 0 -- -- 75
2020-09-03 04:00:00 15.8 14 Sudeste 23 Sudeste 0 -- -- 63
2020-09-03 03:00:00 16.4 11 Sudeste 23 Este 0 -- -- 40
2020-09-03 02:00:00 16.5 10 Nordeste 15 Este 0 -- -- 36
2020-09-03 01:00:00 17.3 0 Calma 3 Noroeste 0 -- -- 34
2020-09-03 00:00:00 18 0 Calma 2 Noroeste 0 -- -- 34
2020-09-02 23:00:00 19.3 0 Calma 5 Este 0 -- -- 30
2020-09-02 22:00:00 19.5 5 Este 5 Este 0 -- -- 30
2020-09-02 21:00:00 22.6 4 Norte 9 Noroeste 0 -- -- 29
2020-09-02 20:00:00 25.9 4 Noroeste 14 Nordeste 0 -- -- 25
2020-09-02 19:00:00 27.8 5 Norte 17 Nordeste 0 -- -- 24
2020-09-02 18:00:00 28.8 9 Noroeste 22 Noroeste 0 -- -- 21
2020-09-02 17:00:00 28.6 11 Nordeste 24 Norte 0 -- -- 23
2020-09-02 16:00:00 28.8 6 Noroeste 17 Noroeste 0 -- -- 24
2020-09-02 15:00:00 28.1 9 Norte 21 Norte 0 -- -- 27
2020-09-02 14:00:00 28.2 10 Este 19 Este 0 -- -- 29
2020-09-02 13:00:00 26.2 7 Este 22 Nordeste 0 -- -- 35
2020-09-02 12:00:00 24.7 6 Este 20 Este 0 -- -- 39
2020-09-02 11:00:00 22.5 13 Este 23 Nordeste 0 -- -- 46
2020-09-02 10:00:00 19.3 13 Nordeste 22 Nordeste 0 -- -- 43
2020-09-02 09:00:00 16.2 14 Nordeste 20 Nordeste 0 -- -- 43
2020-09-02 08:00:00 13.2 10 Nordeste 13 Nordeste 0 -- -- 48
2020-09-02 07:00:00 12.7 10 Nordeste 13 Nordeste 0 -- -- 48
2020-09-02 06:00:00 13.3 9 Nordeste 14 Nordeste 0 -- -- 48
2020-09-02 05:00:00 13.1 9 Nordeste 18 Este 0 -- -- 47
2020-09-02 04:00:00 13 13 Este 17 Este 0 -- -- 45
2020-09-02 03:00:00 13.6 13 Este 23 Nordeste 0 -- -- 42
2020-09-02 02:00:00 14.5 10 Este 13 Este 0 -- -- 38
2020-09-02 01:00:00 14.3 8 Este 10 Este 0 -- -- 34
2020-09-02 00:00:00 16.7 5 Este 8 Este 0 -- -- 31
2020-09-01 23:00:00 17.9 2 Este 3 Este 0 -- -- 30
2020-09-01 22:00:00 19.6 2 Este 6 Nordeste 0 -- -- 28
2020-09-01 21:00:00 21.7 4 Nordeste 8 Norte 0 -- -- 26
2020-09-01 20:00:00 23.9 5 Noroeste 10 Noroeste 0 -- -- 24
2020-09-01 19:00:00 27.1 4 Oeste 18 Nordeste 0 -- -- 22
2020-09-01 18:00:00 28.2 8 Nordeste 16 Nordeste 0 -- -- 23
2020-09-01 17:00:00 27.3 10 Norte 18 Noroeste 0 -- -- 25
2020-09-01 16:00:00 26.5 4 Oeste 45 Noroeste 0 -- -- 26
2020-09-01 15:00:00 28.5 6 Noroeste 17 Sudoeste 0 -- -- 23
2020-09-01 14:00:00 27.2 6 Sur 17 Sur 0 -- -- 24
2020-09-01 13:00:00 25.2 9 Sudeste 13 Sur 0 -- -- 30
2020-09-01 12:00:00 20.6 7 Sur 17 Sur 0 -- -- 53
2020-09-01 11:00:00 18.1 5 Sur 27 Sudeste 0 -- -- 59
2020-09-01 10:00:00 16 9 Sudeste 14 Sudeste 0 -- -- 63
2020-09-01 09:00:00 14.9 10 Este 14 Este 0 -- -- 59
2020-09-01 08:00:00 13.3 8 Este 14 Sudeste 0 -- -- 55
2020-09-01 07:00:00 13 12 Sudeste 18 Sudeste 0 -- -- 48
2020-09-01 06:00:00 13.3 6 Sudeste 15 Sudeste 0 -- -- 40
2020-09-01 05:00:00 12.9 5 Sudeste 12 Este 0 -- -- 39
2020-09-01 04:00:00 13 5 Sudeste 13 Sudeste 0 -- -- 38
2020-09-01 03:00:00 13 5 Este 7 Este 0 -- -- 38
2020-09-01 02:00:00 13.3 5 Este 6 Este 0 -- -- 37
2020-09-01 01:00:00 13.8 3 Sudeste 11 Este 0 -- -- 36
2020-09-01 00:00:00 15.3 3 Este 4 Este 0 -- -- 35
2020-08-31 23:00:00 16.4 3 Este 4 Este 0 -- -- 32
2020-08-31 22:00:00 17.4 2 Este 9 Norte 0 -- -- 32
2020-08-31 21:00:00 20.7 5 Noroeste 10 Oeste 0 -- -- 28
2020-08-31 20:00:00 22.7 5 Noroeste 15 Noroeste 0 -- -- 26
2020-08-31 19:00:00 25.2 8 Oeste 18 Oeste 0 -- -- 24
2020-08-31 18:00:00 25.6 6 Nordeste 16 Norte 0 -- -- 22
2020-08-31 17:00:00 27 4 Sur 18 Oeste 0 -- -- 21
2020-08-31 16:00:00 25.7 11 Sudoeste 22 Sudoeste 0 -- -- 24
2020-08-31 15:00:00 25.6 11 Sudoeste 26 Sudoeste 0 -- -- 26
2020-08-31 14:00:00 25.7 5 Este 18 Este 0 -- -- 28
2020-08-31 13:00:00 23.7 8 Este 17 Este 0 -- -- 33
2020-08-31 12:00:00 22.9 4 Sudeste 14 Este 0 -- -- 36
2020-08-31 11:00:00 20.8 7 Este 15 Este 0 -- -- 43
2020-08-31 10:00:00 18.8 9 Este 15 Este 0 -- -- 44
2020-08-31 09:00:00 12.2 8 Este 13 Nordeste 0 -- -- 60
2020-08-31 08:00:00 8.9 9 Este 12 Nordeste 0 -- -- 69
2020-08-31 07:00:00 9.2 8 Nordeste 17 Nordeste 0 -- -- 66
2020-08-31 06:00:00 11.2 12 Nordeste 15 Nordeste 0 -- -- 60
2020-08-31 05:00:00 11.7 10 Nordeste 22 Nordeste 0 -- -- 57
2020-08-31 04:00:00 12.9 15 Nordeste 23 Nordeste 0 -- -- 54
2020-08-31 03:00:00 13.5 17 Nordeste 23 Nordeste 0 -- -- 51
2020-08-31 02:00:00 14.1 15 Nordeste 23 Nordeste 0 -- -- 46
2020-08-31 01:00:00 14.7 16 Nordeste 22 Nordeste 0 -- -- 41
2020-08-31 00:00:00 15.3 13 Nordeste 22 Nordeste 0 -- -- 37
2020-08-30 23:00:00 16.7 13 Nordeste 25 Nordeste 0 -- -- 35
2020-08-30 22:00:00 17.6 8 Norte 13 Norte 0 -- -- 33
2020-08-30 21:00:00 18.4 6 Norte 17 Norte 0 -- -- 29
2020-08-30 20:00:00 20.5 6 Norte 19 Norte 0 -- -- 26
2020-08-30 19:00:00 22.2 4 Noroeste 24 Norte 0 -- -- 26
2020-08-30 18:00:00 22.9 12 Norte 25 Norte 0 -- -- 26
2020-08-30 17:00:00 23.4 10 Nordeste 21 Norte 0 -- -- 26
2020-08-30 16:00:00 22.9 9 Norte 31 Noroeste 0 -- -- 25
2020-08-30 15:00:00 22.3 12 Norte 29 Noroeste 0 -- -- 30
2020-08-30 14:00:00 21.1 12 Norte 27 Norte 0 -- -- 32
2020-08-30 13:00:00 20.3 13 Nordeste 30 Norte 0 -- -- 35
2020-08-30 12:00:00 18.2 16 Norte 31 Norte 0 -- -- 41
2020-08-30 11:00:00 16.1 19 Norte 28 Nordeste 0 -- -- 47
2020-08-30 10:00:00 14.5 19 Nordeste 25 Nordeste 0 -- -- 52
2020-08-30 09:00:00 12.1 15 Nordeste 23 Nordeste 0 -- -- 61
2020-08-30 08:00:00 9.5 12 Nordeste 15 Nordeste 0 -- -- 69
2020-08-30 07:00:00 8.9 6 Nordeste 10 Nordeste 0 -- -- 72
2020-08-30 06:00:00 9 5 Nordeste 9 Nordeste 0 -- -- 71
2020-08-30 05:00:00 10 5 Nordeste 18 Norte 0 -- -- 66
2020-08-30 04:00:00 12.4 12 Nordeste 19 Nordeste 0 -- -- 59
2020-08-30 03:00:00 12.7 10 Nordeste 23 Norte 0 -- -- 60
2020-08-30 02:00:00 13.4 12 Nordeste 21 Nordeste 0 -- -- 59
2020-08-30 01:00:00 14.5 15 Nordeste 30 Nordeste 0 -- -- 54
2020-08-30 00:00:00 16 19 Norte 33 Norte 0 -- -- 48
2020-08-29 23:00:00 16.9 17 Norte 28 Norte 0 -- -- 44
2020-08-29 22:00:00 18.2 19 Norte 27 Norte 0 -- -- 40
2020-08-29 21:00:00 18.9 17 Norte 42 Norte 0 -- -- 36
2020-08-29 20:00:00 21.7 14 Noroeste 31 Noroeste 0 -- -- 31
2020-08-29 19:00:00 22.5 14 Norte 32 Norte 0 -- -- 28
2020-08-29 18:00:00 23.1 16 Norte 35 Noroeste 0 -- -- 30
2020-08-29 17:00:00 24.2 14 Noroeste 33 Noroeste 0 -- -- 28
2020-08-29 16:00:00 24.1 12 Noroeste 36 Norte 0 -- -- 29
2020-08-29 15:00:00 23.2 13 Norte 39 Norte 0 -- -- 30
2020-08-29 14:00:00 22.5 18 Norte 38 Norte 0 -- -- 32
2020-08-29 13:00:00 21 20 Nordeste 35 Norte 0 -- -- 34
2020-08-29 12:00:00 20 19 Norte 42 Norte 0 -- -- 37
2020-08-29 11:00:00 18.1 25 Norte 37 Norte 0 -- -- 40
2020-08-29 10:00:00 16.5 22 Norte 34 Norte 0 -- -- 52
2020-08-29 09:00:00 15.1 22 Norte 32 Norte 0 -- -- 58
2020-08-29 08:00:00 13.9 18 Nordeste 27 Norte 0 -- -- 65
2020-08-29 07:00:00 14.3 18 Norte 32 Nordeste 0 -- -- 66
2020-08-29 06:00:00 14.8 25 Nordeste 33 Nordeste 0 -- -- 67
2020-08-29 05:00:00 15.9 16 Norte 30 Noroeste 0 -- -- 66
2020-08-29 04:00:00 17.2 14 Norte 23 Norte 0 -- -- 54
2020-08-29 03:00:00 17.7 10 Norte 21 Norte 0 -- -- 44
2020-08-29 02:00:00 19.3 14 Norte 20 Norte 0 -- -- 40
2020-08-29 01:00:00 19.5 9 Noroeste 21 Noroeste 0 -- -- 35
2020-08-29 00:00:00 21 10 Noroeste 21 Noroeste 0 -- -- 27
2020-08-28 23:00:00 21.8 7 Noroeste 28 Oeste 0 -- -- 24
2020-08-28 22:00:00 24.4 14 Oeste 33 Oeste 0 -- -- 28
2020-08-28 21:00:00 26.2 15 Oeste 36 Oeste 0 -- -- 26
2020-08-28 20:00:00 28.7 19 Oeste 39 Oeste 0 -- -- 21
2020-08-28 19:00:00 30.7 21 Oeste 42 Oeste 0 -- -- 19
2020-08-28 18:00:00 32.1 17 Oeste 42 Oeste 0 -- -- 25
2020-08-28 17:00:00 32.3 21 Oeste 42 Oeste 0 -- -- 27
2020-08-28 16:00:00 32.8 14 Noroeste 36 Oeste 0 -- -- 31
2020-08-28 15:00:00 32.6 14 Oeste 32 Oeste 0 -- -- 30
2020-08-28 14:00:00 32.1 13 Oeste 33 Oeste 0 -- -- 31
2020-08-28 13:00:00 31.2 9 Noroeste 21 Oeste 0 -- -- 30
2020-08-28 12:00:00 29.5 9 Noroeste 22 Noroeste 0 -- -- 35
2020-08-28 11:00:00 28.6 8 Noroeste 20 Norte 0 -- -- 37
2020-08-28 10:00:00 26 11 Norte 21 Norte 0 -- -- 42
2020-08-28 09:00:00 22.7 8 Noroeste 15 Noroeste 0 -- -- 45
2020-08-28 08:00:00 20.3 5 Noroeste 11 Noroeste 0 -- -- 52
2020-08-28 07:00:00 20.2 4 Noroeste 9 Noroeste 0 -- -- 50
2020-08-28 06:00:00 20.9 5 Noroeste 15 Norte 0 -- -- 46
2020-08-28 05:00:00 23.1 7 Norte 16 Noroeste 0 -- -- 40
2020-08-28 04:00:00 23.9 12 Norte 19 Norte 0 -- -- 40
2020-08-28 03:00:00 24.3 10 Noroeste 27 Noroeste 0 -- -- 39
2020-08-28 02:00:00 24.5 9 Noroeste 17 Norte 0 -- -- 35
2020-08-28 01:00:00 24.4 6 Noroeste 15 Noroeste 0 -- -- 32
2020-08-28 00:00:00 25.5 4 Oeste 8 Oeste 0 -- -- 26
2020-08-27 23:00:00 26.1 5 Noroeste 7 Noroeste 0 -- -- 27
2020-08-27 22:00:00 26.6 0 Calma 4 Noroeste 0 -- -- 25
2020-08-27 21:00:00 30.3 4 Norte 10 Norte 0 -- -- 24
2020-08-27 20:00:00 33.5 3 Noroeste 15 Nordeste 0 -- -- 20
2020-08-27 19:00:00 35.9 8 Noroeste 14 Norte 0 -- -- 18
2020-08-27 18:00:00 36.5 8 Noroeste 20 Noroeste 0 -- -- 16
2020-08-27 17:00:00 36.7 7 Noroeste 22 Oeste 0 -- -- 17
2020-08-27 16:00:00 36.4 9 Noroeste 22 Norte 0 -- -- 19
2020-08-27 15:00:00 36.2 11 Sudoeste 22 Sudoeste 0 -- -- 19
2020-08-27 14:00:00 35.4 6 Oeste 22 Oeste 0 -- -- 21
2020-08-27 13:00:00 34.4 4 Norte 13 Nordeste 0 -- -- 24
2020-08-27 12:00:00 32.5 7 Nordeste 14 Norte 0 -- -- 26
2020-08-27 11:00:00 29.4 3 Noroeste 10 Noroeste 0 -- -- 31
2020-08-27 10:00:00 26.1 5 Noroeste 10 Noroeste 0 -- -- 38
2020-08-27 09:00:00 21.3 4 Oeste 8 Sur 0 -- -- 44
2020-08-27 08:00:00 18 4 Sudoeste 6 Oeste 0 -- -- 42
2020-08-27 07:00:00 18 0 Calma 8 Noroeste 0 -- -- 39
2020-08-27 06:00:00 19.9 4 Oeste 9 Oeste 0 -- -- 35
2020-08-27 05:00:00 21.1 5 Noroeste 12 Oeste 0 -- -- 33
2020-08-27 04:00:00 21.1 7 Oeste 12 Sudoeste 0 -- -- 34
2020-08-27 03:00:00 23.5 8 Oeste 13 Oeste 0 -- -- 30
2020-08-27 02:00:00 23.1 7 Oeste 11 Oeste 0 -- -- 31
2020-08-27 01:00:00 23.4 4 Sudoeste 12 Oeste 0 -- -- 30
2020-08-27 00:00:00 25.9 5 Oeste 14 Oeste 0 -- -- 28
2020-08-26 23:00:00 27.3 9 Oeste 18 Oeste 0 -- -- 27
2020-08-26 22:00:00 28.4 5 Noroeste 12 Noroeste 0 -- -- 28
2020-08-26 21:00:00 31.1 6 Noroeste 19 Noroeste 0 -- -- 25
2020-08-26 20:00:00 33.9 10 Noroeste 21 Noroeste 0 -- -- 22
2020-08-26 19:00:00 36 5 Noroeste 19 Oeste 0 -- -- 20
2020-08-26 18:00:00 37.3 7 Oeste 17 Oeste 0 -- -- 19
2020-08-26 17:00:00 37.5 6 Sudeste 21 Nordeste 0 -- -- 19
2020-08-26 16:00:00 37.4 7 Sudoeste 19 Noroeste 0 -- -- 19
2020-08-26 15:00:00 36.5 9 Sudoeste 21 Oeste 0 -- -- 20
2020-08-26 14:00:00 36.2 8 Sudoeste 18 Sudoeste 0 -- -- 21
2020-08-26 13:00:00 35 5 Sudoeste 13 Oeste 0 -- -- 22
2020-08-26 12:00:00 32.9 3 Este 9 Sudoeste 0 -- -- 29
2020-08-26 11:00:00 29.6 5 Sur 17 Sur 0 -- -- 37
2020-08-26 10:00:00 26 10 Sur 19 Sur 0 -- -- 50
2020-08-26 09:00:00 22.3 8 Sur 15 Sudeste 0 -- -- 57
2020-08-26 08:00:00 19.7 9 Sudeste 18 Sudeste 0 -- -- 59
2020-08-26 07:00:00 19.3 10 Sudeste 16 Sudeste 0 -- -- 52
2020-08-26 06:00:00 19.5 6 Sudeste 13 Este 0 -- -- 40
2020-08-26 05:00:00 19.8 9 Sudeste 18 Este 0 -- -- 40
2020-08-26 04:00:00 20.5 4 Sudeste 13 Sudeste 0 -- -- 38
2020-08-26 03:00:00 22.5 5 Oeste 8 Oeste 0 -- -- 35
2020-08-26 02:00:00 22.5 3 Sudoeste 5 Oeste 0 -- -- 34
2020-08-26 01:00:00 23.7 2 Sudoeste 8 Noroeste 0 -- -- 31
2020-08-26 00:00:00 24.7 5 Noroeste 7 Noroeste 0 -- -- 31
2020-08-25 23:00:00 24.7 3 Nordeste 4 Noroeste 0 -- -- 30
2020-08-25 22:00:00 27.1 3 Norte 8 Norte 0 -- -- 27
2020-08-25 21:00:00 30 6 Norte 12 Oeste 0 -- -- 27
2020-08-25 20:00:00 33.1 6 Noroeste 18 Noroeste 0 -- -- 23
2020-08-25 19:00:00 35.6 8 Oeste 22 Noroeste 0 -- -- 21
2020-08-25 18:00:00 36.2 7 Oeste 22 Oeste 0 -- -- 21
2020-08-25 17:00:00 36 9 Oeste 29 Noroeste 0 -- -- 19
2020-08-25 16:00:00 35.7 12 Oeste 27 Sudoeste 0 -- -- 19
2020-08-25 15:00:00 35.7 10 Oeste 27 Sudoeste 0 -- -- 18
2020-08-25 14:00:00 34.8 10 Sudoeste 22 Sur 0 -- -- 21
2020-08-25 13:00:00 33.5 5 Sudeste 14 Sudeste 0 -- -- 28
2020-08-25 12:00:00 30.4 8 Sur 18 Sudeste 0 -- -- 38
2020-08-25 11:00:00 27.6 10 Sudeste 22 Sudeste 0 -- -- 50
2020-08-25 10:00:00 24.2 12 Sudeste 26 Sudeste 0 -- -- 66
2020-08-25 09:00:00 20.9 13 Sudeste 22 Sudeste 0 -- -- 83
2020-08-25 08:00:00 19 10 Sudeste 19 Sudeste 0 -- -- 89
2020-08-25 07:00:00 19.3 11 Sudeste 18 Sudeste 0 -- -- 87
2020-08-25 06:00:00 19.9 9 Sudeste 18 Sudeste 0 -- -- 82
2020-08-25 05:00:00 20.5 10 Sudeste 19 Sudeste 0 -- -- 77
2020-08-25 04:00:00 20.8 10 Sudeste 17 Sudeste 0 -- -- 70
2020-08-25 03:00:00 21.8 9 Sudeste 16 Sudeste 0 -- -- 53
2020-08-25 02:00:00 21.8 6 Este 13 Sudeste 0 -- -- 47
2020-08-25 01:00:00 22.6 2 Este 5 Sudeste 0 -- -- 39
2020-08-25 00:00:00 24 0 Calma 5 Este 0 -- -- 38
2020-08-24 23:00:00 24.1 4 Este 5 Este 0 -- -- 38
2020-08-24 22:00:00 25.5 0 Calma 8 Noroeste 0 -- -- 37
2020-08-24 21:00:00 28.6 5 Noroeste 12 Noroeste 0 -- -- 32
2020-08-24 20:00:00 31.4 3 Noroeste 14 Sudoeste 0 -- -- 30
2020-08-24 19:00:00 33.1 7 Oeste 16 Noroeste 0 -- -- 31
2020-08-24 18:00:00 35.2 9 Sur 18 Oeste 0 -- -- 26
2020-08-24 17:00:00 34.4 4 Noroeste 15 Sudoeste 0 -- -- 27
2020-08-24 16:00:00 33.8 7 Noroeste 19 Oeste 0 -- -- 28
2020-08-24 15:00:00 34 4 Nordeste 23 Nordeste 0 -- -- 32
2020-08-24 14:00:00 32.7 9 Sudeste 22 Sudeste 0 -- -- 39
2020-08-24 13:00:00 31.3 11 Sudeste 25 Este 0 -- -- 46
2020-08-24 12:00:00 29.4 15 Este 30 Este 0 -- -- 53
2020-08-24 11:00:00 27.3 18 Este 27 Este 0 -- -- 59
2020-08-24 10:00:00 25 15 Este 22 Nordeste 0 -- -- 68
2020-08-24 09:00:00 22.8 11 Nordeste 19 Este 0 -- -- 75
2020-08-24 08:00:00 21.4 10 Este 17 Este 0 -- -- 83
2020-08-24 07:00:00 21.1 8 Nordeste 12 Nordeste 0 -- -- 83
2020-08-24 06:00:00 18.5 5 Nordeste 10 Nordeste 0 -- -- 87
2020-08-24 05:00:00 19.9 9 Este 15 Este 0 -- -- 82
2020-08-24 04:00:00 18.9 9 Este 17 Sudeste 0 -- -- 71
2020-08-24 03:00:00 21.1 12 Sudeste 17 Sudeste 0 -- -- 59
2020-08-24 02:00:00 20.4 11 Este 16 Este 0 -- -- 34
2020-08-24 01:00:00 23.4 10 Norte 16 Noroeste 0 -- -- 24
2020-08-24 00:00:00 24.3 8 Norte 9 Norte 0 -- -- 24
2020-08-23 23:00:00 24.5 7 Norte 12 Norte 0 -- -- 25
2020-08-23 22:00:00 27 10 Norte 18 Norte 0 -- -- 22
2020-08-23 21:00:00 28.3 11 Norte 17 Norte 0 -- -- 24
2020-08-23 20:00:00 30.4 6 Noroeste 19 Noroeste 0 -- -- 21
2020-08-23 19:00:00 32.4 6 Noroeste 23 Norte 0 -- -- 20
2020-08-23 18:00:00 33.1 8 Noroeste 21 Norte 0 -- -- 22
2020-08-23 17:00:00 33.2 8 Oeste 22 Oeste 0 -- -- 25
2020-08-23 16:00:00 33.7 5 Oeste 20 Sudoeste 0 -- -- 25
2020-08-23 15:00:00 33.2 4 Sur 19 Nordeste 0 -- -- 28
2020-08-23 14:00:00 32.3 8 Este 21 Norte 0 -- -- 31
2020-08-23 13:00:00 30.8 6 Sudeste 21 Nordeste 0 -- -- 40
2020-08-23 12:00:00 29.5 5 Sur 15 Sudeste 0 -- -- 44
2020-08-23 11:00:00 27.1 9 Sudeste 19 Sudeste 0 -- -- 53
2020-08-23 10:00:00 24.3 15 Este 23 Este 0 -- -- 52
2020-08-23 09:00:00 20 15 Nordeste 22 Nordeste 0 -- -- 53
2020-08-23 08:00:00 16.4 10 Nordeste 15 Nordeste 0 -- -- 50
2020-08-23 07:00:00 15.5 8 Nordeste 10 Norte 0 -- -- 46
2020-08-23 06:00:00 17.5 9 Norte 14 Norte 0 -- -- 43
2020-08-23 05:00:00 18.9 12 Norte 16 Norte 0 -- -- 41
2020-08-23 04:00:00 19.1 8 Nordeste 16 Nordeste 0 -- -- 39
2020-08-23 03:00:00 20.2 12 Nordeste 17 Nordeste 0 -- -- 33
2020-08-23 02:00:00 20.6 6 Noroeste 13 Oeste 0 -- -- 31
2020-08-23 01:00:00 21.1 6 Oeste 11 Oeste 0 -- -- 28
2020-08-23 00:00:00 21.9 4 Oeste 6 Oeste 0 -- -- 25